Time;durP1;ratioP1;P1;durP2;ratioP2;P2;SDS_P1;SDS_P2;PMS_P1;PMS_P2;Temp;Humidity;BMP_temperature;BMP_pressure;BME280_temperature;BME280_humidity;BME280_pressure;Samples;Min_cycle;Max_cycle;Signal;HPM_P1;HPM_P2
2021/03/09 00:01:38;;;;;;;42.20;20.60;;;3.30;99.90;;;;;;4096010;28;20039;-76
2021/03/09 00:03:38;;;;;;;37.65;18.75;;;3.40;99.90;;;;;;4092044;28;20078;-75
2021/03/09 00:05:39;;;;;;;37.53;17.95;;;3.40;99.90;;;;;;4094392;28;20042;-76
2021/03/09 00:07:41;;;;;;;39.67;19.90;;;3.40;99.90;;;;;;4093659;28;20509;-76
2021/03/09 00:09:41;;;;;;;41.38;20.10;;;3.40;99.90;;;;;;4092478;28;20141;-75
2021/03/09 00:11:42;;;;;;;39.95;19.10;;;3.40;99.90;;;;;;4093480;28;20023;-76
2021/03/09 00:13:43;;;;;;;39.30;19.08;;;3.40;99.90;;;;;;4092274;28;20028;-75
2021/03/09 00:15:43;;;;;;;34.72;17.42;;;3.40;99.90;;;;;;4098284;28;20067;-75
2021/03/09 00:17:44;;;;;;;43.15;19.17;;;3.40;99.90;;;;;;4095814;28;20049;-75
2021/03/09 00:19:45;;;;;;;45.10;20.20;;;3.40;99.90;;;;;;4101267;28;20106;-76
2021/03/09 00:21:45;;;;;;;45.50;20.92;;;3.50;99.90;;;;;;4096636;28;20054;-75
2021/03/09 00:23:46;;;;;;;43.58;21.73;;;3.50;99.90;;;;;;4098454;28;20071;-76
2021/03/09 00:25:46;;;;;;;43.92;23.35;;;3.50;99.90;;;;;;4103860;28;20035;-75
2021/03/09 00:27:50;;;;;;;45.35;22.38;;;3.40;99.90;;;;;;4096954;28;20031;-76
2021/03/09 00:29:51;;;;;;;;;;;3.50;99.90;;;;;;4098232;28;20053;-76
2021/03/09 00:31:51;;;;;;;42.38;20.83;;;3.50;99.90;;;;;;4096620;28;19954;-76
2021/03/09 00:33:52;;;;;;;49.58;20.10;;;3.50;99.90;;;;;;4097078;28;20050;-75
2021/03/09 00:35:52;;;;;;;46.13;20.05;;;3.40;99.90;;;;;;4099503;28;20525;-75
2021/03/09 00:37:53;;;;;;;45.53;21.20;;;3.50;99.90;;;;;;4097110;28;20850;-76
2021/03/09 00:39:54;;;;;;;41.35;20.08;;;3.50;99.90;;;;;;4097877;28;20382;-76
2021/03/09 00:41:55;;;;;;;52.35;22.48;;;3.40;99.90;;;;;;4097497;28;20043;-76
2021/03/09 00:43:56;;;;;;;46.17;21.92;;;3.40;99.90;;;;;;4096420;28;20043;-75
2021/03/09 00:45:56;;;;;;;50.25;21.65;;;3.40;99.90;;;;;;4098412;28;20036;-75
2021/03/09 00:47:58;;;;;;;44.55;21.70;;;3.40;99.90;;;;;;4106552;28;20034;-75
2021/03/09 00:49:59;;;;;;;45.95;18.80;;;3.40;99.90;;;;;;4095968;28;20030;-76
2021/03/09 00:52:00;;;;;;;43.03;21.73;;;3.40;99.90;;;;;;4098003;28;20031;-76
2021/03/09 00:54:00;;;;;;;37.05;18.38;;;3.40;99.90;;;;;;4097885;28;20035;-75
2021/03/09 00:56:01;;;;;;;53.72;23.75;;;3.50;99.90;;;;;;4096588;28;20030;-77
2021/03/09 00:58:02;;;;;;;50.55;22.33;;;3.40;99.90;;;;;;4097807;28;20422;-76
2021/03/09 01:00:04;;;;;;;50.50;23.55;;;3.50;99.90;;;;;;4096402;28;20040;-76
2021/03/09 01:02:05;;;;;;;50.22;22.52;;;3.50;99.90;;;;;;4096416;28;20130;-76
2021/03/09 01:04:05;;;;;;;45.65;20.70;;;3.50;99.90;;;;;;4094245;28;20036;-76
2021/03/09 01:06:06;;;;;;;42.50;20.65;;;3.50;99.90;;;;;;4109201;28;20506;-76
2021/03/09 01:08:07;;;;;;;52.47;23.55;;;3.50;99.90;;;;;;4093879;28;20085;-77
2021/03/09 01:10:08;;;;;;;40.78;19.25;;;3.50;99.90;;;;;;4095482;28;20027;-76
2021/03/09 01:12:09;;;;;;;47.95;21.02;;;3.50;99.90;;;;;;4097467;28;20039;-76
2021/03/09 01:14:10;;;;;;;52.67;22.50;;;3.50;99.90;;;;;;4094400;28;20039;-77
2021/03/09 01:16:11;;;;;;;49.80;23.48;;;3.50;99.90;;;;;;4096134;28;20066;-77
2021/03/09 01:18:11;;;;;;;62.50;24.23;;;3.50;99.90;;;;;;4094327;28;20059;-77
2021/03/09 01:20:12;;;;;;;55.88;25.50;;;3.50;99.90;;;;;;4101048;28;20398;-77
2021/03/09 01:22:13;;;;;;;53.50;26.20;;;3.40;99.90;;;;;;4099241;28;20062;-76
2021/03/09 01:24:13;;;;;;;50.78;20.52;;;3.40;99.90;;;;;;4095985;28;20042;-77
2021/03/09 01:26:14;;;;;;;57.33;23.77;;;3.50;99.90;;;;;;4096581;28;20114;-76
2021/03/09 01:28:15;;;;;;;56.33;23.73;;;3.50;99.90;;;;;;4096500;28;20035;-76
2021/03/09 01:30:17;;;;;;;54.33;24.83;;;3.50;99.90;;;;;;4098162;28;20550;-76
2021/03/09 01:32:18;;;;;;;58.20;24.15;;;3.50;99.90;;;;;;4091629;28;20035;-76
2021/03/09 01:34:19;;;;;;;60.00;25.17;;;3.50;99.90;;;;;;4091867;28;20533;-76
2021/03/09 01:36:20;;;;;;;63.30;28.80;;;3.50;99.90;;;;;;4096429;28;20031;-77
2021/03/09 01:38:20;;;;;;;59.70;25.27;;;3.50;99.90;;;;;;4095520;28;20075;-77
2021/03/09 01:40:23;;;;;;;57.65;27.80;;;3.50;99.90;;;;;;4097753;28;20150;-76
2021/03/09 01:42:24;;;;;;;57.50;26.38;;;3.50;99.90;;;;;;4078861;28;20040;-76
2021/03/09 01:44:26;;;;;;;60.45;28.58;;;3.50;99.90;;;;;;4092900;28;20592;-76
2021/03/09 01:46:26;;;;;;;68.72;28.77;;;3.50;99.90;;;;;;4097439;28;20071;-76
2021/03/09 01:48:36;;;;;;;63.35;27.58;;;3.50;99.90;;;;;;4095111;28;20474;-78
2021/03/09 01:50:41;;;;;;;68.05;30.85;;;3.60;99.90;;;;;;4172926;28;20068;-77
2021/03/09 01:52:44;;;;;;;64.38;28.92;;;3.60;99.90;;;;;;4100424;28;20034;-76
2021/03/09 01:54:45;;;;;;;65.32;26.90;;;3.60;99.90;;;;;;4097903;28;20077;-77
2021/03/09 01:56:46;;;;;;;73.00;31.42;;;3.60;99.90;;;;;;4097153;28;20042;-77
2021/03/09 01:58:50;;;;;;;67.30;27.17;;;3.60;99.90;;;;;;4096172;28;20438;-77
2021/03/09 02:00:50;;;;;;;68.35;29.00;;;3.60;99.90;;;;;;4101084;28;20027;-76
2021/03/09 02:02:51;;;;;;;69.40;30.58;;;3.60;99.90;;;;;;4104426;28;20391;-76
2021/03/09 02:04:52;;;;;;;77.22;31.63;;;3.60;99.90;;;;;;4096616;28;21889;-76
2021/03/09 02:06:52;;;;;;;79.60;33.55;;;3.60;99.90;;;;;;4097045;28;20036;-76
2021/03/09 02:08:53;;;;;;;83.80;35.72;;;3.60;99.90;;;;;;4079637;28;20126;-76
2021/03/09 02:10:54;;;;;;;74.28;27.10;;;3.70;99.90;;;;;;4097132;28;20110;-76
2021/03/09 02:13:20;;;;;;;71.50;32.20;;;3.70;99.90;;;;;;4095135;28;20048;-76
2021/03/09 02:15:21;;;;;;;82.68;34.97;;;3.60;99.90;;;;;;4096678;28;20078;-76
2021/03/09 02:17:47;;;;;;;87.13;36.05;;;3.60;99.90;;;;;;4097892;28;20394;-77
2021/03/09 02:20:01;;;;;;;82.63;32.60;;;3.60;99.90;;;;;;4097131;28;20046;-76
2021/03/09 02:22:39;;;;;;;80.30;33.70;;;3.70;99.90;;;;;;4096393;28;20051;-77
2021/03/09 02:25:04;;;;;;;87.22;35.55;;;3.70;99.90;;;;;;4099777;28;20047;-76
2021/03/09 02:27:28;;;;;;;90.15;37.03;;;3.60;99.90;;;;;;4093891;28;20394;-77
2021/03/09 02:29:41;;;;;;;61.05;24.13;;;3.60;99.90;;;;;;4101030;28;20482;-76
2021/03/09 02:31:46;;;;;;;94.60;38.67;;;3.70;99.90;;;;;;4097814;28;20042;-76
2021/03/09 02:33:53;;;;;;;91.38;37.28;;;3.60;99.90;;;;;;4094606;28;20554;-78
2021/03/09 02:36:01;;;;;;;88.68;35.75;;;3.60;99.90;;;;;;4101375;28;20601;-76
2021/03/09 02:38:05;;;;;;;83.68;34.45;;;3.60;99.90;;;;;;4094230;28;20078;-77
2021/03/09 02:40:07;;;;;;;;;;;3.70;99.90;;;;;;4103196;28;20049;-78
2021/03/09 02:42:11;;;;;;;88.25;38.78;;;3.70;99.90;;;;;;4100121;28;19914;-77
2021/03/09 02:44:18;;;;;;;89.60;38.40;;;3.70;99.90;;;;;;4095796;28;20028;-77
2021/03/09 02:46:22;;;;;;;88.20;38.65;;;3.70;99.90;;;;;;4096505;28;20031;-76
2021/03/09 02:48:23;;;;;;;;;;;3.60;99.90;;;;;;4095468;28;20035;-77
2021/03/09 02:50:26;;;;;;;96.22;38.33;;;3.70;99.90;;;;;;4095827;28;20304;-77
2021/03/09 02:52:29;;;;;;;75.15;31.90;;;3.70;99.90;;;;;;4104998;28;20073;-76
2021/03/09 02:54:31;;;;;;;80.55;31.95;;;3.70;99.90;;;;;;4103752;28;20046;-77
2021/03/09 02:56:32;;;;;;;82.55;36.95;;;3.70;99.90;;;;;;4096689;28;20564;-77
2021/03/09 02:58:36;;;;;;;88.25;37.58;;;3.70;99.90;;;;;;4102111;28;20035;-77
2021/03/09 03:00:37;;;;;;;79.95;35.25;;;3.70;99.90;;;;;;4094616;28;20096;-77
2021/03/09 03:02:39;;;;;;;96.07;40.25;;;3.70;99.90;;;;;;4094320;28;20049;-77
2021/03/09 03:04:47;;;;;;;90.65;36.67;;;3.70;99.90;;;;;;4104009;28;20065;-77
2021/03/09 03:06:49;;;;;;;83.22;34.85;;;3.70;99.90;;;;;;4105364;28;20035;-77
2021/03/09 03:08:50;;;;;;;98.03;39.58;;;3.70;99.90;;;;;;4096101;28;20055;-77
2021/03/09 03:10:51;;;;;;;89.63;39.20;;;3.70;99.90;;;;;;4094473;28;20587;-77
2021/03/09 03:12:52;;;;;;;91.32;41.63;;;3.70;99.90;;;;;;4094981;28;20062;-76
2021/03/09 03:14:53;;;;;;;85.65;39.42;;;3.70;99.90;;;;;;4094591;28;20046;-76
2021/03/09 03:16:54;;;;;;;93.88;39.15;;;3.70;99.90;;;;;;4098261;28;20414;-77
2021/03/09 03:18:57;;;;;;;69.65;32.35;;;3.80;99.90;;;;;;4095676;28;20127;-77
2021/03/09 03:20:59;;;;;;;89.70;38.15;;;3.80;99.90;;;;;;4096529;28;20039;-77
2021/03/09 03:23:02;;;;;;;87.72;36.50;;;3.80;99.90;;;;;;4094320;28;20659;-77
2021/03/09 03:25:04;;;;;;;86.55;37.45;;;3.80;99.90;;;;;;4095313;28;20061;-74
2021/03/09 03:27:06;;;;;;;93.13;40.58;;;3.80;99.90;;;;;;4095285;28;20632;-75
2021/03/09 03:29:09;;;;;;;99.50;42.88;;;3.80;99.90;;;;;;4092959;28;20067;-77
2021/03/09 03:31:10;;;;;;;88.82;35.88;;;3.70;99.90;;;;;;4095364;28;20035;-77
2021/03/09 03:33:11;;;;;;;102.03;41.15;;;3.80;99.90;;;;;;4094171;28;20103;-76
2021/03/09 03:35:13;;;;;;;86.38;37.03;;;3.80;99.90;;;;;;4098333;28;20138;-77
2021/03/09 03:37:14;;;;;;;90.00;38.42;;;3.80;99.90;;;;;;4094196;28;20502;-77
2021/03/09 03:39:15;;;;;;;97.00;42.50;;;3.90;99.90;;;;;;4099432;28;20107;-77
2021/03/09 03:41:16;;;;;;;99.30;40.05;;;3.80;99.90;;;;;;4098678;28;20449;-77
2021/03/09 03:43:16;;;;;;;105.85;44.80;;;3.80;99.90;;;;;;4100588;28;20034;-77
2021/03/09 03:45:20;;;;;;;99.60;43.35;;;3.80;99.90;;;;;;4095516;28;20062;-77
2021/03/09 03:47:21;;;;;;;99.80;41.55;;;3.80;99.90;;;;;;4108747;28;20042;-77
2021/03/09 03:49:21;;;;;;;92.72;41.35;;;3.80;99.90;;;;;;4090998;28;20385;-74
2021/03/09 03:51:37;;;;;;;89.55;39.15;;;3.80;99.90;;;;;;4101300;28;20058;-77
2021/03/09 03:53:41;;;;;;;85.53;38.47;;;3.80;99.90;;;;;;4099456;28;20065;-77
2021/03/09 03:56:24;;;;;;;100.95;41.10;;;3.90;99.90;;;;;;4098830;28;20040;-76
2021/03/09 03:58:47;;;;;;;87.97;37.97;;;3.90;99.90;;;;;;4096015;28;20074;-77
2021/03/09 04:00:51;;;;;;;90.50;38.28;;;3.90;99.90;;;;;;4109019;28;20074;-77
2021/03/09 04:02:52;;;;;;;88.80;39.15;;;3.90;99.90;;;;;;4096073;28;20504;-77
2021/03/09 04:04:54;;;;;;;96.35;38.78;;;3.90;99.90;;;;;;4103962;28;20126;-78
2021/03/09 04:06:55;;;;;;;99.40;42.67;;;3.90;99.90;;;;;;4105742;28;20405;-76
2021/03/09 04:09:01;;;;;;;111.07;41.38;;;3.90;99.90;;;;;;4097077;28;20059;-77
2021/03/09 04:11:04;;;;;;;100.30;40.03;;;3.90;99.90;;;;;;4096169;28;20114;-77
2021/03/09 04:13:05;;;;;;;82.75;34.67;;;3.90;99.90;;;;;;4097105;28;20039;-76
2021/03/09 04:15:06;;;;;;;95.88;40.15;;;3.90;99.90;;;;;;4095994;28;20414;-76
2021/03/09 04:17:07;;;;;;;90.80;37.85;;;3.90;99.90;;;;;;4111521;28;20033;-78
2021/03/09 04:19:10;;;;;;;98.22;40.35;;;3.90;99.90;;;;;;4089772;28;20031;-76
2021/03/09 04:21:12;;;;;;;102.32;43.25;;;3.90;99.90;;;;;;4099963;28;20041;-76
2021/03/09 04:23:14;;;;;;;100.45;42.35;;;4.00;99.90;;;;;;4102087;28;20042;-77
2021/03/09 04:25:16;;;;;;;107.38;44.60;;;3.90;99.90;;;;;;4095044;28;20068;-77
2021/03/09 04:27:21;;;;;;;108.38;44.80;;;3.90;99.90;;;;;;4096452;28;20478;-77
2021/03/09 04:29:24;;;;;;;107.35;43.15;;;3.90;99.90;;;;;;4085623;28;20043;-77
2021/03/09 04:31:25;;;;;;;106.35;42.05;;;3.90;99.90;;;;;;4095544;28;20039;-77
2021/03/09 04:33:30;;;;;;;101.20;44.65;;;4.00;99.90;;;;;;4097693;28;20118;-77
2021/03/09 04:35:31;;;;;;;107.30;43.45;;;4.00;99.90;;;;;;4099331;28;20123;-77
2021/03/09 04:37:32;;;;;;;95.93;41.35;;;4.00;99.90;;;;;;4097759;28;20483;-76
2021/03/09 04:39:34;;;;;;;111.50;46.03;;;4.00;99.90;;;;;;4097419;28;20038;-77
2021/03/09 04:41:36;;;;;;;108.57;42.72;;;3.90;99.90;;;;;;4099899;28;20038;-77
2021/03/09 04:43:37;;;;;;;102.78;42.97;;;3.90;99.90;;;;;;4097838;28;20112;-77
2021/03/09 04:45:38;;;;;;;110.35;43.65;;;3.90;99.90;;;;;;4098920;28;20054;-77
2021/03/09 04:47:40;;;;;;;118.55;48.05;;;4.00;99.90;;;;;;4100451;28;20031;-77
2021/03/09 04:49:41;;;;;;;117.20;46.60;;;4.00;99.90;;;;;;4096001;28;20032;-77
2021/03/09 04:51:42;;;;;;;110.05;48.47;;;4.00;99.90;;;;;;4102053;28;20134;-77
2021/03/09 04:53:44;;;;;;;110.38;45.95;;;4.00;99.90;;;;;;4098413;28;20044;-77
2021/03/09 04:55:45;;;;;;;108.32;47.83;;;4.00;99.90;;;;;;4102925;28;20024;-77
2021/03/09 04:57:46;;;;;;;117.45;50.30;;;4.00;99.90;;;;;;4098111;28;20062;-77
2021/03/09 04:59:46;;;;;;;124.30;49.72;;;4.00;99.90;;;;;;4096757;28;20042;-77
2021/03/09 05:01:47;;;;;;;124.28;50.58;;;4.00;99.90;;;;;;4095125;28;20027;-77
2021/03/09 05:03:48;;;;;;;124.70;51.28;;;4.00;99.90;;;;;;4101711;28;20035;-77
2021/03/09 05:05:48;;;;;;;119.57;45.95;;;4.00;99.90;;;;;;4087851;28;20036;-77
2021/03/09 05:07:52;;;;;;;120.43;46.05;;;4.00;99.90;;;;;;4091727;28;20123;-77
2021/03/09 05:09:52;;;;;;;;;;;4.00;99.90;;;;;;4094751;28;20030;-77
2021/03/09 05:11:53;;;;;;;121.18;49.83;;;4.00;99.90;;;;;;4094743;28;19937;-77
2021/03/09 05:13:56;;;;;;;114.07;49.45;;;4.00;99.90;;;;;;4097149;28;20030;-76
2021/03/09 05:15:56;;;;;;;110.03;45.67;;;4.00;99.90;;;;;;4093611;28;20075;-77
2021/03/09 05:17:57;;;;;;;129.07;51.58;;;4.00;99.90;;;;;;4095003;28;20338;-76
2021/03/09 05:19:58;;;;;;;122.80;48.55;;;4.00;99.90;;;;;;4092198;28;20031;-76
2021/03/09 05:21:59;;;;;;;127.38;54.35;;;4.10;99.90;;;;;;4098233;28;20114;-77
2021/03/09 05:23:59;;;;;;;124.55;53.50;;;4.00;99.90;;;;;;4095313;28;20181;-77
2021/03/09 05:26:00;;;;;;;140.23;54.08;;;4.10;99.90;;;;;;4094956;28;20058;-77
2021/03/09 05:28:00;;;;;;;131.57;53.78;;;4.00;99.90;;;;;;4095682;28;20051;-77
2021/03/09 05:30:01;;;;;;;129.75;53.15;;;4.10;99.90;;;;;;4095912;28;20027;-77
2021/03/09 05:32:02;;;;;;;132.98;52.33;;;4.10;99.90;;;;;;4097922;28;20397;-77
2021/03/09 05:34:03;;;;;;;131.43;52.88;;;4.20;99.90;;;;;;4096667;28;20062;-78
2021/03/09 05:36:04;;;;;;;127.80;51.72;;;4.10;99.90;;;;;;4095753;28;20035;-77
2021/03/09 05:38:05;;;;;;;106.70;48.42;;;4.20;99.90;;;;;;4096430;28;20050;-77
2021/03/09 05:40:07;;;;;;;126.13;49.65;;;4.20;99.90;;;;;;4096495;28;20035;-76
2021/03/09 05:42:08;;;;;;;127.43;52.00;;;4.20;99.90;;;;;;4096687;28;20035;-77
2021/03/09 05:44:09;;;;;;;121.10;51.83;;;4.20;99.90;;;;;;4100667;28;20078;-76
2021/03/09 05:46:10;;;;;;;112.32;48.38;;;4.20;99.90;;;;;;4096797;28;20552;-77
2021/03/09 05:48:12;;;;;;;125.68;54.63;;;4.20;99.90;;;;;;4098743;28;20531;-76
2021/03/09 05:50:14;;;;;;;130.18;55.17;;;4.20;99.90;;;;;;4101040;28;20025;-76
2021/03/09 05:52:17;;;;;;;140.10;57.50;;;4.20;99.90;;;;;;4097233;28;20505;-76
2021/03/09 05:54:18;;;;;;;127.80;52.17;;;4.20;99.90;;;;;;4104524;28;20122;-77
2021/03/09 05:56:19;;;;;;;129.73;52.00;;;4.20;99.90;;;;;;4097504;28;20105;-76
2021/03/09 05:58:19;;;;;;;113.80;51.95;;;4.20;99.90;;;;;;4099591;28;20077;-77
2021/03/09 06:00:20;;;;;;;122.13;51.28;;;4.20;99.90;;;;;;4098739;28;20051;-77
2021/03/09 06:02:22;;;;;;;116.82;52.88;;;4.30;99.90;;;;;;4095784;28;20070;-77
2021/03/09 06:04:22;;;;;;;133.95;51.33;;;4.30;99.90;;;;;;4095495;28;20551;-76
2021/03/09 06:06:23;;;;;;;123.63;53.50;;;4.30;99.90;;;;;;4087716;28;20066;-77
2021/03/09 06:08:23;;;;;;;129.52;54.42;;;4.30;99.90;;;;;;4084823;28;20457;-77
2021/03/09 06:10:25;;;;;;;110.90;43.75;;;4.30;99.90;;;;;;4084955;28;20055;-76
2021/03/09 06:12:26;;;;;;;124.78;48.47;;;4.30;99.90;;;;;;4096389;28;20047;-77
2021/03/09 06:14:27;;;;;;;130.23;52.58;;;4.30;99.90;;;;;;4089323;28;20469;-77
2021/03/09 06:16:33;;;;;;;135.13;56.63;;;4.30;99.90;;;;;;4091486;28;20058;-76
2021/03/09 06:18:34;;;;;;;131.43;56.65;;;4.30;99.90;;;;;;4089223;28;20043;-77
2021/03/09 06:20:35;;;;;;;138.95;59.67;;;4.30;99.90;;;;;;4089861;28;20109;-77
2021/03/09 06:22:42;;;;;;;152.45;60.03;;;4.30;99.90;;;;;;4098466;28;20039;-77
2021/03/09 06:24:46;;;;;;;137.88;59.17;;;4.30;99.90;;;;;;4097337;28;20088;-76
2021/03/09 06:26:47;;;;;;;144.27;52.22;;;4.30;99.90;;;;;;4096486;28;20359;-76
2021/03/09 06:28:51;;;;;;;131.68;49.75;;;4.40;99.90;;;;;;4096139;28;20080;-76
2021/03/09 06:30:54;;;;;;;136.73;55.47;;;4.40;99.90;;;;;;4088687;28;20766;-76
2021/03/09 06:32:55;;;;;;;136.38;56.35;;;4.40;99.90;;;;;;4095648;28;20034;-76
2021/03/09 06:34:55;;;;;;;142.32;58.42;;;4.40;99.90;;;;;;4097077;28;20081;-76
2021/03/09 06:37:11;;;;;;;141.38;55.45;;;4.40;99.90;;;;;;4096705;28;20032;-77
2021/03/09 06:39:11;;;;;;;144.48;58.22;;;4.40;99.90;;;;;;4099038;28;20101;-76
2021/03/09 06:41:16;;;;;;;168.90;61.53;;;4.50;99.90;;;;;;4094661;28;20043;-76
2021/03/09 06:43:18;;;;;;;153.40;58.10;;;4.50;99.90;;;;;;4094145;28;20035;-76
2021/03/09 06:45:20;;;;;;;153.57;56.97;;;4.50;99.90;;;;;;4078261;28;20135;-75
2021/03/09 06:47:48;;;;;;;156.63;56.95;;;4.50;99.90;;;;;;4093880;28;20051;-76
2021/03/09 06:49:53;;;;;;;148.43;54.72;;;4.50;99.90;;;;;;4093353;28;20638;-76
2021/03/09 06:52:10;;;;;;;144.55;56.17;;;4.60;99.90;;;;;;4092569;28;20099;-76
2021/03/09 06:54:11;;;;;;;150.35;60.90;;;4.60;99.90;;;;;;4094106;28;20035;-76
2021/03/09 06:56:26;;;;;;;155.68;60.95;;;4.60;99.90;;;;;;4096557;28;20028;-76
2021/03/09 06:58:29;;;;;;;161.85;61.38;;;4.60;99.90;;;;;;4094600;28;20119;-76
2021/03/09 07:00:29;;;;;;;154.95;59.83;;;4.60;99.90;;;;;;4091568;28;20075;-76
2021/03/09 07:02:31;;;;;;;174.07;66.07;;;4.60;99.90;;;;;;4092187;28;20035;-76
2021/03/09 07:04:32;;;;;;;164.38;61.55;;;4.60;99.90;;;;;;4102726;28;20101;-76
2021/03/09 07:06:44;;;;;;;175.77;63.53;;;4.60;99.90;;;;;;4095474;28;20027;-76
2021/03/09 07:08:45;;;;;;;170.10;65.35;;;4.70;99.90;;;;;;4097086;28;20168;-75
2021/03/09 07:10:46;;;;;;;169.65;63.72;;;4.70;99.90;;;;;;4090986;28;20055;-76
2021/03/09 07:12:48;;;;;;;147.60;53.95;;;4.70;99.90;;;;;;4093609;28;20039;-76
2021/03/09 07:14:50;;;;;;;157.43;61.15;;;4.80;99.90;;;;;;4093293;28;20494;-76
2021/03/09 07:16:53;;;;;;;146.80;57.80;;;4.80;99.90;;;;;;4100813;28;20034;-75
2021/03/09 07:18:54;;;;;;;158.27;58.60;;;4.80;99.90;;;;;;4094977;28;20035;-76
2021/03/09 07:20:56;;;;;;;155.50;58.20;;;4.90;99.90;;;;;;4081246;28;20035;-76
2021/03/09 07:23:01;;;;;;;160.50;60.95;;;4.90;99.90;;;;;;4091322;28;20135;-76
2021/03/09 07:25:13;;;;;;;172.23;58.70;;;4.90;99.90;;;;;;4098571;28;20141;-77
2021/03/09 07:27:18;;;;;;;155.68;55.30;;;5.00;99.90;;;;;;4095915;28;20063;-76
2021/03/09 07:29:21;;;;;;;141.63;49.45;;;5.00;99.90;;;;;;4092872;28;20031;-76
2021/03/09 07:31:24;;;;;;;126.28;48.42;;;5.10;99.90;;;;;;4091690;28;20073;-77
2021/03/09 07:33:26;;;;;;;120.32;45.95;;;5.20;99.90;;;;;;4094668;28;20043;-76
2021/03/09 07:35:28;;;;;;;107.55;44.67;;;5.30;99.90;;;;;;4091547;28;20058;-76
2021/03/09 07:38:48;;;;;;;96.10;37.00;;;5.30;99.90;;;;;;4189617;27;20803;-75
2021/03/09 07:40:49;;;;;;;96.28;38.85;;;5.50;99.90;;;;;;4170398;28;20064;-75
2021/03/09 07:42:50;;;;;;;93.20;40.42;;;5.50;99.90;;;;;;4169226;28;20057;-75
2021/03/09 07:44:51;;;;;;;87.65;37.97;;;5.40;99.90;;;;;;4170205;28;20068;-75
2021/03/09 07:46:53;;;;;;;88.57;38.22;;;5.40;99.90;;;;;;4167133;28;20028;-75
2021/03/09 07:48:54;;;;;;;90.75;38.40;;;5.40;99.90;;;;;;4172764;28;20041;-76
2021/03/09 07:51:03;;;;;;;91.32;38.88;;;5.50;99.90;;;;;;4167286;28;20053;-75
2021/03/09 07:53:12;;;;;;;90.13;38.47;;;5.50;99.90;;;;;;4174346;28;20040;-76
2021/03/09 07:55:13;;;;;;;92.70;36.80;;;5.50;99.90;;;;;;4171894;28;20400;-76
2021/03/09 07:57:20;;;;;;;80.18;33.22;;;5.60;99.90;;;;;;4204504;28;20036;-76
2021/03/09 07:59:21;;;;;;;50.63;26.13;;;5.60;99.90;;;;;;4169082;28;20025;-77
2021/03/09 08:01:47;;;;;;;46.13;21.83;;;5.70;99.90;;;;;;4175006;28;20037;-76
2021/03/09 08:03:48;;;;;;;35.90;17.00;;;5.70;99.90;;;;;;4174650;28;20447;-76
2021/03/09 08:06:00;;;;;;;32.70;18.55;;;5.70;99.90;;;;;;4168310;28;20087;-76
2021/03/09 08:08:03;;;;;;;34.33;17.25;;;5.70;99.90;;;;;;4167788;28;20068;-76
2021/03/09 08:10:05;;;;;;;35.28;16.08;;;5.70;99.90;;;;;;4168728;28;20030;-77
2021/03/09 08:12:23;;;;;;;31.65;15.88;;;5.70;99.90;;;;;;4166855;28;21274;-77
2021/03/09 08:14:25;;;;;;;29.90;15.20;;;5.80;99.90;;;;;;4169197;28;20021;-76
2021/03/09 08:16:26;;;;;;;25.33;14.70;;;5.90;99.90;;;;;;4170090;28;20025;-77
2021/03/09 08:18:27;;;;;;;31.85;14.35;;;6.00;99.90;;;;;;4187293;28;20045;-76
2021/03/09 08:20:46;;;;;;;23.92;11.77;;;6.00;99.90;;;;;;4202298;28;20043;-75
2021/03/09 08:22:46;;;;;;;24.05;11.85;;;6.10;99.90;;;;;;4200118;28;20048;-77
2021/03/09 08:24:47;;;;;;;15.05;9.85;;;6.20;99.90;;;;;;4174066;28;20107;-75
2021/03/09 08:26:49;;;;;;;26.48;11.38;;;6.30;99.90;;;;;;4168746;28;20045;-75
2021/03/09 08:28:49;;;;;;;18.02;9.20;;;6.30;99.90;;;;;;4167068;28;20033;-75
2021/03/09 08:30:50;;;;;;;18.30;9.38;;;6.30;99.90;;;;;;4169441;28;20049;-75
2021/03/09 08:32:50;;;;;;;17.70;8.68;;;6.30;99.90;;;;;;4165521;28;20140;-75
2021/03/09 08:35:10;;;;;;;19.42;10.05;;;6.30;99.90;;;;;;4153692;28;20475;-76
2021/03/09 08:37:31;;;;;;;19.13;10.30;;;6.20;99.90;;;;;;4156564;28;20053;-75
2021/03/09 08:39:31;;;;;;;15.93;8.05;;;6.20;99.90;;;;;;4154505;28;20088;-75
2021/03/09 08:41:38;;;;;;;15.43;8.00;;;6.30;99.90;;;;;;4157232;28;20477;-76
2021/03/09 08:43:40;;;;;;;13.82;8.93;;;6.30;99.90;;;;;;4157426;28;20044;-76
2021/03/09 08:45:54;;;;;;;14.90;8.70;;;6.30;99.90;;;;;;4155943;28;20146;-76
2021/03/09 08:47:55;;;;;;;13.88;7.90;;;6.40;99.90;;;;;;4184589;28;20033;-76
2021/03/09 08:49:56;;;;;;;14.55;7.75;;;6.50;99.90;;;;;;4142573;28;20045;-76
2021/03/09 08:51:56;;;;;;;12.23;6.93;;;6.60;99.90;;;;;;4144188;28;20077;-75
2021/03/09 08:53:57;;;;;;;13.10;7.65;;;6.60;99.90;;;;;;4146735;28;20038;-75
2021/03/09 08:55:59;;;;;;;14.07;7.63;;;6.70;99.90;;;;;;4171926;28;20045;-75
2021/03/09 08:58:06;;;;;;;10.45;7.57;;;6.70;99.90;;;;;;4145724;28;20093;-75
2021/03/09 09:00:11;;;;;;;12.55;7.75;;;6.80;99.90;;;;;;4143107;28;20034;-76
2021/03/09 09:02:20;;;;;;;9.43;6.32;;;6.90;99.90;;;;;;4145679;28;20444;-76
2021/03/09 09:04:20;;;;;;;12.00;6.85;;;7.10;99.90;;;;;;4153708;28;20523;-75
2021/03/09 09:06:27;;;;;;;11.65;7.82;;;7.10;99.90;;;;;;4142718;28;20042;-76
2021/03/09 09:08:27;;;;;;;10.57;7.43;;;7.30;99.90;;;;;;4152010;28;20029;-75
2021/03/09 09:10:28;;;;;;;8.77;6.68;;;7.30;99.90;;;;;;4150148;28;20060;-75
2021/03/09 09:12:34;;;;;;;17.13;7.80;;;7.30;99.90;;;;;;4147949;28;20120;-75
2021/03/09 09:14:35;;;;;;;9.15;7.07;;;7.40;99.90;;;;;;4142951;28;20117;-75
2021/03/09 09:16:35;;;;;;;8.00;6.38;;;7.40;99.90;;;;;;4145808;28;20034;-75
2021/03/09 09:18:36;;;;;;;7.57;6.22;;;7.60;99.90;;;;;;4170386;28;20120;-75
2021/03/09 09:20:44;;;;;;;8.60;5.68;;;7.70;99.90;;;;;;4145388;28;20437;-75
2021/03/09 09:22:46;;;;;;;8.95;5.95;;;7.60;99.90;;;;;;4157488;28;20037;-75
2021/03/09 09:25:02;;;;;;;5.65;5.05;;;7.50;99.90;;;;;;4145463;28;20116;-75
2021/03/09 09:27:03;;;;;;;5.90;4.50;;;7.40;99.90;;;;;;4145285;28;20037;-75
2021/03/09 09:29:04;;;;;;;8.68;5.15;;;7.30;99.90;;;;;;4143392;28;20125;-75
2021/03/09 09:31:09;;;;;;;5.35;4.55;;;7.10;99.90;;;;;;4140207;28;20421;-76
2021/03/09 09:33:12;;;;;;;5.68;4.45;;;7.00;99.90;;;;;;4145662;28;20493;-74
2021/03/09 09:35:13;;;;;;;9.88;4.90;;;7.10;99.90;;;;;;4143797;28;20022;-74
2021/03/09 09:37:15;;;;;;;7.47;4.60;;;7.10;99.90;;;;;;4144540;28;20161;-75
2021/03/09 09:39:16;;;;;;;5.03;4.63;;;7.20;99.90;;;;;;4144027;28;20507;-75
2021/03/09 09:41:19;;;;;;;4.65;4.10;;;7.30;99.90;;;;;;4141984;28;20065;-74
2021/03/09 09:43:21;;;;;;;7.60;5.37;;;7.40;99.90;;;;;;4138847;28;20436;-75
2021/03/09 09:45:23;;;;;;;6.63;4.75;;;7.60;99.90;;;;;;4143552;28;20307;-74
2021/03/09 09:47:24;;;;;;;10.52;4.60;;;7.70;99.90;;;;;;4143784;28;20412;-75
2021/03/09 09:49:25;;;;;;;6.72;3.67;;;7.80;99.90;;;;;;4142915;28;20049;-74
2021/03/09 09:51:26;;;;;;;7.35;4.25;;;7.80;99.90;;;;;;4143817;28;20405;-75
2021/03/09 09:53:40;;;;;;;6.32;4.15;;;7.80;99.90;;;;;;4142130;28;20485;-74
2021/03/09 09:55:41;;;;;;;5.50;4.20;;;7.80;99.90;;;;;;4134380;28;20034;-75
2021/03/09 09:57:50;;;;;;;7.05;4.07;;;7.80;99.90;;;;;;4134902;28;20068;-74
2021/03/09 09:59:51;;;;;;;5.13;4.18;;;7.70;99.90;;;;;;4159263;28;20423;-74
2021/03/09 10:01:51;;;;;;;4.97;3.10;;;7.70;99.90;;;;;;4143400;28;20084;-74
2021/03/09 10:03:53;;;;;;;8.80;3.75;;;7.80;99.90;;;;;;4142551;28;20370;-75
2021/03/09 10:05:55;;;;;;;4.93;3.22;;;7.80;99.90;;;;;;4141470;28;20401;-74
2021/03/09 10:07:57;;;;;;;6.63;3.20;;;7.90;99.90;;;;;;4143129;28;20111;-74
2021/03/09 10:10:10;;;;;;;8.00;4.53;;;7.90;99.90;;;;;;4143625;28;20038;-75
2021/03/09 10:12:11;;;;;;;7.18;3.58;;;7.90;99.90;;;;;;4139136;28;20041;-75
2021/03/09 10:14:12;;;;;;;5.10;3.40;;;7.80;99.90;;;;;;4143924;28;20037;-76
2021/03/09 10:16:13;;;;;;;5.88;4.10;;;7.70;99.90;;;;;;4144063;28;20034;-76
2021/03/09 10:18:36;;;;;;;6.85;3.58;;;7.70;99.90;;;;;;4144858;28;20125;-76
2021/03/09 10:20:36;;;;;;;5.55;4.38;;;7.60;99.90;;;;;;4159353;28;20621;-75
2021/03/09 10:22:37;;;;;;;6.63;4.68;;;7.50;99.90;;;;;;4141075;28;20116;-74
2021/03/09 10:24:38;;;;;;;7.15;4.47;;;7.40;99.90;;;;;;4142599;28;20489;-74
2021/03/09 10:26:41;;;;;;;5.50;3.97;;;7.30;99.90;;;;;;4145115;28;20102;-74
2021/03/09 10:28:42;;;;;;;8.15;4.22;;;7.20;99.90;;;;;;4145258;28;20489;-74
2021/03/09 10:30:42;;;;;;;10.95;4.93;;;7.10;99.90;;;;;;4141392;28;20037;-74
2021/03/09 10:32:51;;;;;;;9.00;5.00;;;7.00;99.90;;;;;;4144605;28;20049;-75
2021/03/09 10:34:54;;;;;;;12.48;7.50;;;7.00;99.90;;;;;;4142807;28;20042;-75
2021/03/09 10:37:01;;;;;;;9.45;7.70;;;7.00;99.90;;;;;;4140891;28;20042;-74